createdAt,value
2018-11-04T00:00:48.579Z,14.47
2018-11-04T00:03:17.281Z,15.47
2018-11-04T00:05:47.959Z,16.03
2018-11-04T00:08:16.281Z,15.07
2018-11-04T00:10:44.999Z,14.33
2018-11-04T00:13:13.481Z,14.53
2018-11-04T00:15:41.680Z,15.27
2018-11-04T00:18:10.004Z,14.77
2018-11-04T00:20:38.626Z,14.80
2018-11-04T00:23:08.523Z,14.57
2018-11-04T00:25:37.957Z,13.63
2018-11-04T00:28:06.866Z,15.17
2018-11-04T00:30:35.272Z,13.87
2018-11-04T00:33:03.957Z,14.27
2018-11-04T00:35:33.202Z,14.67
2018-11-04T00:38:01.604Z,13.93
2018-11-04T00:40:30.154Z,14.73
2018-11-04T00:42:58.834Z,15.77
2018-11-04T00:45:27.286Z,15.03
2018-11-04T00:47:56.751Z,14.47
2018-11-04T00:50:25.324Z,16.60
2018-11-04T00:52:54.607Z,15.00
2018-11-04T00:55:23.171Z,15.60
2018-11-04T00:57:51.617Z,15.40
2018-11-04T01:00:20.332Z,16.00
2018-11-04T01:02:50.058Z,16.33
2018-11-04T01:05:19.063Z,14.27
2018-11-04T01:07:47.315Z,13.80
2018-11-04T01:10:15.603Z,15.00
2018-11-04T01:12:44.995Z,14.33
2018-11-04T01:15:14.391Z,14.67
2018-11-04T01:17:43.193Z,14.83
2018-11-04T01:20:14.430Z,14.57
2018-11-04T01:22:43.143Z,15.30
2018-11-04T01:25:12.520Z,15.20
2018-11-04T01:27:41.308Z,15.97
2018-11-04T01:30:11.737Z,15.20
2018-11-04T01:32:41.409Z,16.13
2018-11-04T01:35:10.136Z,16.83
2018-11-04T01:37:38.819Z,19.13
2018-11-04T01:40:08.485Z,19.57
2018-11-04T01:42:37.259Z,19.70
2018-11-04T01:45:07.262Z,19.33
2018-11-04T01:47:35.848Z,19.47
2018-11-04T01:50:05.844Z,18.37
2018-11-04T01:52:34.086Z,19.20
2018-11-04T01:55:02.584Z,19.30
2018-11-04T01:57:31.276Z,18.30
2018-11-04T01:59:59.826Z,19.47
2018-11-04T02:02:28.934Z,19.90
2018-11-04T02:04:57.967Z,19.50
2018-11-04T02:07:27.454Z,20.27
2018-11-04T02:09:56.451Z,19.33
2018-11-04T02:12:24.930Z,19.93
2018-11-04T02:14:54.268Z,20.53
2018-11-04T02:17:23.629Z,20.43
2018-11-04T02:19:51.864Z,18.63
2018-11-04T02:22:20.185Z,18.73
2018-11-04T02:24:49.011Z,18.77
2018-11-04T02:27:18.587Z,19.97
2018-11-04T02:29:46.804Z,21.33
2018-11-04T02:32:15.103Z,20.63
2018-11-04T02:34:43.675Z,19.80
2018-11-04T02:37:11.952Z,20.70
2018-11-04T02:39:40.387Z,20.07
2018-11-04T02:42:08.927Z,20.73
2018-11-04T02:44:37.342Z,20.33
2018-11-04T02:47:06.065Z,19.97
2018-11-04T02:49:34.553Z,20.60
2018-11-04T02:52:03.543Z,20.13
2018-11-04T02:54:32.317Z,20.27
2018-11-04T02:57:00.974Z,20.43
2018-11-04T02:59:29.446Z,20.77
2018-11-04T03:01:57.945Z,19.77
2018-11-04T03:04:26.795Z,19.03
2018-11-04T03:06:55.454Z,19.03
2018-11-04T03:09:24.502Z,19.07
2018-11-04T03:11:53.158Z,18.73
2018-11-04T03:17:03.058Z,20.47
2018-11-04T03:19:31.709Z,18.93
2018-11-04T03:22:00.630Z,19.70
2018-11-04T03:24:29.813Z,18.83
2018-11-04T03:26:59.126Z,19.57
2018-11-04T03:29:27.452Z,17.70
2018-11-04T03:31:56.215Z,18.20
2018-11-04T03:34:24.949Z,19.43
2018-11-04T03:36:53.855Z,19.77
2018-11-04T03:39:23.468Z,17.80
2018-11-04T03:41:51.753Z,20.43
2018-11-04T03:44:20.019Z,19.10
2018-11-04T03:46:48.420Z,19.07
2018-11-04T03:49:17.414Z,17.90
2018-11-04T03:51:45.941Z,18.33
2018-11-04T03:54:14.205Z,18.27
2018-11-04T03:56:42.860Z,18.40
2018-11-04T03:59:11.091Z,18.43
2018-11-04T04:01:39.504Z,19.30
2018-11-04T04:04:07.743Z,19.00
2018-11-04T04:06:36.496Z,19.03
2018-11-04T04:09:07.628Z,19.00
2018-11-04T04:11:37.118Z,18.03
2018-11-04T04:14:06.759Z,19.07
2018-11-04T04:16:35.192Z,19.20
2018-11-04T04:19:03.882Z,19.27
2018-11-04T04:21:32.315Z,19.00
2018-11-04T04:24:00.751Z,17.50
2018-11-04T04:26:30.012Z,18.17
2018-11-04T04:28:58.529Z,18.60
2018-11-04T04:31:27.451Z,17.40
2018-11-04T04:33:55.829Z,18.27
2018-11-04T04:36:24.307Z,17.80
2018-11-04T04:38:52.552Z,18.17
2018-11-04T04:41:21.139Z,16.33
2018-11-04T04:43:50.354Z,18.50
2018-11-04T04:46:19.047Z,19.83
2018-11-04T04:48:47.766Z,20.13
2018-11-04T04:51:16.038Z,17.40
2018-11-04T04:53:44.920Z,17.87
2018-11-04T04:56:13.190Z,16.33
2018-11-04T04:58:41.570Z,16.67
2018-11-04T05:01:10.267Z,16.33
2018-11-04T05:03:39.406Z,16.53
2018-11-04T05:06:08.187Z,16.87
2018-11-04T05:08:37.132Z,19.13
2018-11-04T05:11:06.093Z,15.93
2018-11-04T05:13:34.391Z,16.27
2018-11-04T05:16:03.103Z,16.50
2018-11-04T05:18:31.660Z,16.23
2018-11-04T05:20:59.894Z,17.17
2018-11-04T05:23:28.503Z,15.40
2018-11-04T05:25:56.828Z,15.97
2018-11-04T05:28:25.266Z,15.53
2018-11-04T05:30:54.844Z,16.23
2018-11-04T05:33:23.109Z,15.93
2018-11-04T05:35:51.950Z,15.10
2018-11-04T05:38:20.451Z,16.30
2018-11-04T05:40:49.155Z,16.43
2018-11-04T05:43:17.815Z,15.20
2018-11-04T05:45:46.486Z,16.57
2018-11-04T05:48:14.743Z,15.97
2018-11-04T05:50:42.991Z,16.63
2018-11-04T05:53:12.269Z,14.73
2018-11-04T05:55:40.731Z,15.77
2018-11-04T05:58:09.014Z,16.20
2018-11-04T06:00:37.197Z,15.97
2018-11-04T06:03:06.458Z,14.97
2018-11-04T06:05:34.979Z,15.80
2018-11-04T06:08:03.227Z,14.83
2018-11-04T06:10:31.703Z,14.80
2018-11-04T06:13:00.219Z,15.60
2018-11-04T06:15:28.544Z,17.13
2018-11-04T06:17:56.783Z,15.87
2018-11-04T06:20:25.024Z,15.33
2018-11-04T06:22:53.415Z,15.40
2018-11-04T06:25:21.611Z,15.17
2018-11-04T06:27:50.295Z,14.87
2018-11-04T06:30:18.931Z,16.97
2018-11-04T06:32:47.623Z,17.73
2018-11-04T06:35:15.921Z,15.53
2018-11-04T06:37:44.113Z,15.70
2018-11-04T06:40:12.896Z,14.47
2018-11-04T06:42:41.126Z,14.47
2018-11-04T06:45:10.031Z,14.87
2018-11-04T06:47:38.532Z,15.17
2018-11-04T06:50:08.887Z,14.53
2018-11-04T06:52:37.279Z,15.67
2018-11-04T06:55:06.499Z,15.67
2018-11-04T06:57:34.791Z,15.90
2018-11-04T07:00:03.072Z,14.67
2018-11-04T07:02:31.215Z,15.63
2018-11-04T07:04:59.643Z,14.97
2018-11-04T07:07:28.385Z,14.20
2018-11-04T07:09:57.159Z,14.07
2018-11-04T07:12:26.327Z,14.27
2018-11-04T07:14:55.098Z,14.40
2018-11-04T07:17:24.819Z,15.00
2018-11-04T07:19:53.725Z,13.50
2018-11-04T07:22:23.094Z,14.30
2018-11-04T07:24:51.482Z,12.73
2018-11-04T07:27:19.663Z,13.93
2018-11-04T07:29:48.217Z,13.50
2018-11-04T07:32:16.560Z,12.50
2018-11-04T07:34:44.646Z,13.63
2018-11-04T07:37:12.874Z,14.47
2018-11-04T07:39:41.179Z,15.10
2018-11-04T07:42:09.457Z,15.40
2018-11-04T07:44:37.666Z,13.63
2018-11-04T07:47:06.169Z,26.70
2018-11-04T07:49:34.431Z,16.73
2018-11-04T07:52:02.939Z,12.63
2018-11-04T07:54:31.739Z,13.27
2018-11-04T07:57:00.254Z,12.43
2018-11-04T07:59:28.469Z,13.27
2018-11-04T08:01:56.936Z,13.60
2018-11-04T08:04:25.687Z,13.80
2018-11-04T08:06:54.227Z,15.87
2018-11-04T08:09:22.672Z,14.27
2018-11-04T08:11:50.876Z,12.57
2018-11-04T08:14:19.334Z,12.93
2018-11-04T08:16:47.752Z,12.93
2018-11-04T08:19:15.967Z,13.67
2018-11-04T08:21:44.843Z,14.10
2018-11-04T08:24:13.734Z,14.57
2018-11-04T08:26:42.015Z,12.70
2018-11-04T08:29:10.253Z,12.47
2018-11-04T08:31:38.470Z,12.10
2018-11-04T08:34:06.815Z,12.03
2018-11-04T08:36:35.157Z,12.80
2018-11-04T08:39:04.594Z,12.23
2018-11-04T08:41:33.278Z,12.70
2018-11-04T08:44:01.486Z,11.90
2018-11-04T08:46:29.692Z,11.97
2018-11-04T08:48:57.878Z,12.53
2018-11-04T08:51:26.136Z,12.63
2018-11-04T08:53:54.335Z,13.33
2018-11-04T08:56:22.914Z,11.93
2018-11-04T08:58:51.348Z,12.37
2018-11-04T09:01:19.618Z,11.47
2018-11-04T09:03:47.961Z,11.57
2018-11-04T09:06:16.930Z,12.03
2018-11-04T09:08:46.244Z,11.03
2018-11-04T09:11:15.673Z,10.50
2018-11-04T09:13:44.362Z,11.17
2018-11-04T09:16:13.187Z,11.60
2018-11-04T09:18:42.580Z,11.00
2018-11-04T09:21:11.893Z,11.50
2018-11-04T09:23:40.645Z,11.53
2018-11-04T09:26:08.925Z,11.47
2018-11-04T09:28:37.250Z,10.97
2018-11-04T09:31:06.287Z,10.07
2018-11-04T09:33:34.610Z,10.70
2018-11-04T09:36:03.056Z,11.43
2018-11-04T09:38:31.543Z,11.57
2018-11-04T09:40:59.791Z,11.70
2018-11-04T09:43:28.019Z,11.47
2018-11-04T09:45:56.444Z,12.33
2018-11-04T09:48:24.851Z,11.10
2018-11-04T09:50:53.292Z,10.13
2018-11-04T09:53:21.579Z,10.97
2018-11-04T09:55:49.829Z,10.60
2018-11-04T09:58:21.055Z,11.67
2018-11-04T10:00:49.374Z,11.83
2018-11-04T10:03:17.681Z,11.83
2018-11-04T10:05:46.196Z,11.17
2018-11-04T10:08:14.509Z,12.07
2018-11-04T10:10:42.792Z,12.57
2018-11-04T10:13:11.233Z,11.33
2018-11-04T10:15:39.658Z,12.13
2018-11-04T10:18:08.186Z,11.07
2018-11-04T10:20:36.947Z,10.77
2018-11-04T10:23:05.310Z,11.57
2018-11-04T10:25:34.034Z,10.23
2018-11-04T10:28:02.455Z,10.97
2018-11-04T10:30:30.808Z,11.93
2018-11-04T10:32:58.988Z,10.53
2018-11-04T10:35:27.230Z,10.13
2018-11-04T10:37:55.541Z,12.13
2018-11-04T10:40:23.896Z,9.60
2018-11-04T10:42:52.702Z,11.30
2018-11-04T10:45:21.171Z,10.63
2018-11-04T10:47:49.574Z,10.47
2018-11-04T10:50:17.826Z,11.43
2018-11-04T10:52:46.114Z,10.60
2018-11-04T10:55:14.318Z,10.20
2018-11-04T10:57:42.642Z,10.30
2018-11-04T11:00:16.658Z,10.83
2018-11-04T11:02:45.595Z,9.73
2018-11-04T11:05:14.320Z,10.13
2018-11-04T11:07:42.572Z,11.10
2018-11-04T11:10:11.396Z,11.00
2018-11-04T11:12:40.157Z,11.23
2018-11-04T11:15:09.756Z,11.73
2018-11-04T11:17:38.518Z,11.70
2018-11-04T11:20:08.844Z,11.53
2018-11-04T11:22:38.226Z,9.80
2018-11-04T11:25:08.942Z,11.30
2018-11-04T11:27:37.553Z,10.70
2018-11-04T11:30:06.215Z,10.87
2018-11-04T11:32:34.390Z,11.77
2018-11-04T11:35:03.025Z,11.27
2018-11-04T11:37:31.532Z,10.43
2018-11-04T11:40:00.013Z,11.00
2018-11-04T11:42:28.707Z,10.50
2018-11-04T11:44:57.181Z,11.10
2018-11-04T11:47:25.465Z,10.63
2018-11-04T11:49:53.811Z,11.40
2018-11-04T11:52:22.101Z,11.37
2018-11-04T11:54:50.697Z,11.10
2018-11-04T11:57:19.183Z,11.90
2018-11-04T11:59:47.401Z,12.03
2018-11-04T12:02:16.084Z,11.63
2018-11-04T12:04:44.224Z,11.80
2018-11-04T12:07:12.432Z,12.10
2018-11-04T12:09:40.848Z,12.37
2018-11-04T12:12:09.150Z,12.70
2018-11-04T12:14:37.404Z,11.63
2018-11-04T12:17:05.598Z,12.33
2018-11-04T12:19:33.787Z,13.63
2018-11-04T12:22:02.279Z,12.60
2018-11-04T12:24:30.525Z,12.53
2018-11-04T12:26:58.803Z,11.93
2018-11-04T12:29:27.029Z,12.37
2018-11-04T12:31:55.228Z,11.87
2018-11-04T12:34:23.462Z,14.07
2018-11-04T12:36:52.126Z,12.23
2018-11-04T12:39:20.967Z,12.00
2018-11-04T12:41:49.469Z,13.50
2018-11-04T12:44:17.793Z,14.23
2018-11-04T12:46:45.980Z,12.00
2018-11-04T12:49:14.570Z,11.87
2018-11-04T12:51:43.490Z,12.77
2018-11-04T12:54:12.490Z,13.77
2018-11-04T12:56:41.081Z,13.10
2018-11-04T12:59:09.968Z,12.60
2018-11-04T13:01:38.927Z,14.40
2018-11-04T13:04:07.680Z,14.37
2018-11-04T13:06:36.314Z,16.60
2018-11-04T13:09:07.485Z,14.47
2018-11-04T13:11:36.588Z,15.20
2018-11-04T13:14:05.116Z,14.70
2018-11-04T13:16:33.710Z,14.70
2018-11-04T13:19:02.118Z,14.57
2018-11-04T13:21:30.599Z,15.50
2018-11-04T13:23:59.218Z,15.30
2018-11-04T13:26:27.489Z,15.33
2018-11-04T13:28:55.684Z,14.13
2018-11-04T13:31:24.120Z,15.63
2018-11-04T13:33:52.630Z,14.40
2018-11-04T13:36:21.051Z,14.90
2018-11-04T13:38:49.304Z,15.57
2018-11-04T13:41:17.487Z,14.80
2018-11-04T13:43:45.919Z,16.57
2018-11-04T13:46:14.957Z,14.47
2018-11-04T13:48:43.609Z,15.50
2018-11-04T13:51:12.179Z,14.87
2018-11-04T13:53:40.838Z,16.50
2018-11-04T13:56:09.644Z,14.63
2018-11-04T13:58:39.165Z,14.40
2018-11-04T14:01:07.877Z,14.00
2018-11-04T14:03:36.865Z,14.03
2018-11-04T14:06:05.498Z,14.07
2018-11-04T14:08:34.152Z,13.87
2018-11-04T14:11:02.867Z,15.60
2018-11-04T14:13:31.668Z,13.67
2018-11-04T14:16:00.858Z,14.37
2018-11-04T14:18:29.559Z,14.50
2018-11-04T14:20:58.340Z,15.63
2018-11-04T14:23:27.118Z,14.03
2018-11-04T14:25:55.825Z,13.57
2018-11-04T14:28:24.606Z,13.67
2018-11-04T14:30:53.500Z,14.10
2018-11-04T14:33:22.305Z,13.90
2018-11-04T14:35:51.331Z,13.90
2018-11-04T14:38:19.563Z,14.80
2018-11-04T14:40:47.909Z,13.60
2018-11-04T14:43:16.421Z,12.73
2018-11-04T14:45:44.831Z,12.33
2018-11-04T14:48:13.075Z,11.97
2018-11-04T14:50:41.460Z,11.67
2018-11-04T14:53:09.849Z,13.73
2018-11-04T14:55:38.106Z,11.97
2018-11-04T14:58:06.883Z,12.20
2018-11-04T15:00:35.246Z,11.97
2018-11-04T15:03:04.391Z,11.67
2018-11-04T15:05:32.809Z,12.03
2018-11-04T15:08:01.412Z,12.17
2018-11-04T15:10:29.665Z,11.57
2018-11-04T15:12:58.136Z,10.87
2018-11-04T15:15:26.446Z,10.70
2018-11-04T15:17:54.716Z,12.13
2018-11-04T15:20:22.890Z,11.00
2018-11-04T15:22:51.923Z,11.83
2018-11-04T15:25:21.695Z,11.77
2018-11-04T15:27:50.892Z,13.63
2018-11-04T15:30:19.665Z,13.73
2018-11-04T15:32:48.422Z,14.50
2018-11-04T15:35:17.507Z,13.30
2018-11-04T15:37:46.533Z,12.57
2018-11-04T15:40:16.099Z,12.90
2018-11-04T15:42:44.780Z,11.60
2018-11-04T15:45:14.647Z,11.73
2018-11-04T15:47:43.365Z,12.73
2018-11-04T15:50:16.364Z,12.20
2018-11-04T15:52:45.061Z,12.53
2018-11-04T15:55:13.296Z,14.00
2018-11-04T15:57:41.569Z,13.10
2018-11-04T16:00:11.679Z,13.20
2018-11-04T16:02:39.952Z,13.80
2018-11-04T16:05:09.688Z,12.53
2018-11-04T16:07:38.042Z,14.00
2018-11-04T16:10:07.706Z,14.00
2018-11-04T16:12:36.153Z,16.13
2018-11-04T16:15:05.411Z,14.80
2018-11-04T16:17:35.136Z,16.70
2018-11-04T16:20:03.386Z,14.97
2018-11-04T16:22:31.655Z,14.17
2018-11-04T16:25:00.327Z,13.93
2018-11-04T16:27:29.772Z,14.57
2018-11-04T16:29:58.038Z,14.97
2018-11-04T16:32:26.492Z,15.23
2018-11-04T16:34:54.968Z,15.07
2018-11-04T16:37:24.205Z,14.80
2018-11-04T16:39:53.547Z,15.97
2018-11-04T16:42:22.507Z,15.37
2018-11-04T16:44:51.174Z,15.53
2018-11-04T16:47:19.405Z,16.53
2018-11-04T16:49:47.706Z,15.10
2018-11-04T16:52:16.005Z,14.23
2018-11-04T16:54:44.307Z,14.17
2018-11-04T16:57:12.676Z,20.67
2018-11-04T16:59:42.128Z,18.33
2018-11-04T17:02:11.222Z,16.27
2018-11-04T17:04:39.911Z,19.40
2018-11-04T17:07:08.115Z,17.90
2018-11-04T17:09:36.679Z,13.67
2018-11-04T17:12:06.569Z,12.77
2018-11-04T17:14:35.366Z,11.93
2018-11-04T17:17:04.471Z,13.47
2018-11-04T17:19:33.468Z,15.13
2018-11-04T17:22:02.514Z,14.67
2018-11-04T17:24:30.763Z,14.23
2018-11-04T17:26:59.065Z,14.17
2018-11-04T17:29:27.495Z,15.20
2018-11-04T17:31:55.974Z,15.90
2018-11-04T17:34:24.211Z,16.97
2018-11-04T17:36:52.799Z,16.47
2018-11-04T17:39:21.098Z,15.60
2018-11-04T17:41:49.401Z,50.00
2018-11-04T17:44:17.832Z,24.47
2018-11-04T17:46:46.467Z,23.97
2018-11-04T17:49:14.940Z,26.83
2018-11-04T17:51:43.162Z,22.57
2018-11-04T17:54:11.491Z,20.40
2018-11-04T17:56:40.375Z,19.10
2018-11-04T17:59:08.825Z,19.97
2018-11-04T18:01:37.343Z,21.20
2018-11-04T18:04:06.438Z,20.60
2018-11-04T18:06:35.856Z,16.43
2018-11-04T18:09:05.069Z,16.07
2018-11-04T18:11:33.524Z,16.27
2018-11-04T18:14:02.397Z,15.50
2018-11-04T18:16:31.445Z,16.33
2018-11-04T18:19:00.023Z,15.67
2018-11-04T18:21:29.189Z,17.10
2018-11-04T18:23:57.505Z,15.60
2018-11-04T18:26:26.484Z,15.37
2018-11-04T18:28:55.171Z,13.47
2018-11-04T18:31:23.389Z,15.77
2018-11-04T18:33:52.232Z,13.93
2018-11-04T18:36:21.123Z,13.80
2018-11-04T18:38:49.905Z,14.33
2018-11-04T18:41:18.151Z,21.93
2018-11-04T18:43:46.469Z,15.83
2018-11-04T18:46:14.770Z,14.73
2018-11-04T18:48:43.459Z,13.93
2018-11-04T18:51:11.874Z,11.10
2018-11-04T18:53:40.625Z,11.07
2018-11-04T18:56:09.907Z,11.80
2018-11-04T18:58:39.391Z,13.10
2018-11-04T19:01:07.892Z,20.90
2018-11-04T19:03:36.748Z,14.53
2018-11-04T19:06:05.341Z,12.37
2018-11-04T19:08:33.821Z,11.57
2018-11-04T19:11:02.981Z,23.10
2018-11-04T19:13:33.046Z,17.03
2018-11-04T19:16:02.716Z,16.90
2018-11-04T19:18:31.647Z,17.20
2018-11-04T19:20:59.929Z,16.67
2018-11-04T19:23:28.146Z,15.03
2018-11-04T19:25:57.175Z,17.67
2018-11-04T19:28:25.992Z,17.87
2018-11-04T19:30:54.458Z,15.37
2018-11-04T19:33:23.206Z,16.57
2018-11-04T19:35:51.835Z,16.67
2018-11-04T19:38:20.865Z,16.77
2018-11-04T19:40:49.082Z,15.80
2018-11-04T19:43:19.038Z,14.83
2018-11-04T19:45:47.903Z,15.47
2018-11-04T19:48:16.685Z,16.03
2018-11-04T19:50:44.843Z,15.40
2018-11-04T19:53:14.591Z,16.07
2018-11-04T19:55:43.171Z,16.13
2018-11-04T19:58:11.662Z,15.87
2018-11-04T20:00:39.908Z,14.77
2018-11-04T20:03:09.316Z,14.00
2018-11-04T20:05:38.039Z,13.70
2018-11-04T20:08:06.737Z,13.50
2018-11-04T20:10:35.535Z,12.07
2018-11-04T20:13:10.228Z,12.60
2018-11-04T20:15:39.206Z,19.67
2018-11-04T20:18:13.219Z,20.87
2018-11-04T20:20:42.535Z,18.70
2018-11-04T20:23:11.362Z,18.60
2018-11-04T20:25:45.257Z,18.03
2018-11-04T20:28:13.581Z,17.50
2018-11-04T20:30:42.173Z,17.50
2018-11-04T20:33:12.689Z,18.80
2018-11-04T20:35:41.525Z,17.43
2018-11-04T20:38:10.406Z,17.97
2018-11-04T20:40:45.324Z,18.17
2018-11-04T20:43:13.881Z,16.73
2018-11-04T20:45:42.678Z,15.37
2018-11-04T20:48:16.893Z,14.50
2018-11-04T20:50:51.135Z,17.90
2018-11-04T20:53:20.368Z,16.60
2018-11-04T20:55:54.381Z,15.53
2018-11-04T20:58:23.179Z,15.83
2018-11-04T21:00:52.945Z,16.67
2018-11-04T21:03:21.591Z,16.73
2018-11-04T21:05:50.428Z,15.00
2018-11-04T21:08:19.595Z,24.27
2018-11-04T21:10:48.615Z,23.77
2018-11-04T21:13:18.499Z,17.53
2018-11-04T21:15:47.199Z,17.53
2018-11-04T21:18:16.720Z,16.83
2018-11-04T21:20:45.445Z,19.57
2018-11-04T21:23:14.389Z,17.07
2018-11-04T21:25:43.823Z,16.33
2018-11-04T21:28:13.050Z,15.93
2018-11-04T21:30:43.093Z,14.77
2018-11-04T21:33:11.970Z,15.90
2018-11-04T21:35:40.579Z,14.73
2018-11-04T21:38:10.064Z,15.87
2018-11-04T21:40:38.791Z,12.83
2018-11-04T21:43:07.760Z,13.43
2018-11-04T21:45:36.376Z,14.27
2018-11-04T21:48:05.050Z,12.97
2018-11-04T21:50:34.482Z,13.80
2018-11-04T21:53:04.901Z,15.40
2018-11-04T21:55:34.054Z,15.43
2018-11-04T21:58:03.095Z,14.00
2018-11-04T22:00:32.286Z,14.33
2018-11-04T22:03:00.696Z,14.17
2018-11-04T22:05:29.757Z,14.97
2018-11-04T22:07:58.119Z,18.80
2018-11-04T22:10:26.662Z,15.77
2018-11-04T22:12:55.061Z,13.50
2018-11-04T22:15:23.509Z,13.27
2018-11-04T22:17:51.731Z,17.10
2018-11-04T22:20:20.859Z,13.87
2018-11-04T22:22:49.996Z,13.83
2018-11-04T22:25:18.572Z,14.93
2018-11-04T22:27:47.454Z,14.03
2018-11-04T22:30:15.984Z,14.23
2018-11-04T22:32:44.564Z,15.60
2018-11-04T22:35:13.090Z,14.30
2018-11-04T22:37:41.871Z,14.20
2018-11-04T22:40:11.418Z,13.00
2018-11-04T22:42:40.279Z,11.67
2018-11-04T22:45:09.507Z,11.83
2018-11-04T22:47:38.062Z,11.97
2018-11-04T22:50:09.578Z,13.13
2018-11-04T22:52:38.286Z,14.60
2018-11-04T22:55:06.648Z,13.77
2018-11-04T22:57:34.874Z,10.80
2018-11-04T23:00:04.326Z,11.23
2018-11-04T23:02:33.518Z,9.93
2018-11-04T23:05:07.323Z,10.13
2018-11-04T23:07:36.738Z,10.10
2018-11-04T23:10:06.064Z,10.97
2018-11-04T23:12:34.789Z,10.47
2018-11-04T23:15:03.962Z,10.90
2018-11-04T23:17:33.334Z,13.00
2018-11-04T23:20:01.934Z,14.43
2018-11-04T23:22:31.374Z,14.73
2018-11-04T23:25:00.046Z,13.10
2018-11-04T23:27:28.996Z,15.77
2018-11-04T23:29:57.547Z,14.17
2018-11-04T23:32:25.858Z,13.00
2018-11-04T23:34:54.140Z,10.60
2018-11-04T23:37:22.725Z,9.83
2018-11-04T23:39:50.992Z,8.93
2018-11-04T23:42:19.174Z,9.10
2018-11-04T23:44:47.819Z,11.67
2018-11-04T23:47:16.564Z,11.30
2018-11-04T23:49:46.018Z,15.17
2018-11-04T23:52:14.434Z,10.77
2018-11-04T23:54:43.972Z,13.03
2018-11-04T23:57:12.362Z,10.80
2018-11-04T23:59:40.921Z,9.73
